sensor_id;sensor_type;location;lat;lon;timestamp;temperature;humidity
45283;DHT22;31023;44.994;1.796;2023-02-24T00:01:25;8.80;99.90
45283;DHT22;31023;44.994;1.796;2023-02-24T00:03:53;8.90;99.90
45283;DHT22;31023;44.994;1.796;2023-02-24T00:06:22;9.00;99.90
45283;DHT22;31023;44.994;1.796;2023-02-24T00:08:48;9.10;99.90
45283;DHT22;31023;44.994;1.796;2023-02-24T00:11:15;9.10;99.90
45283;DHT22;31023;44.994;1.796;2023-02-24T00:13:42;9.10;99.90
45283;DHT22;31023;44.994;1.796;2023-02-24T00:16:13;9.20;99.90
45283;DHT22;31023;44.994;1.796;2023-02-24T00:18:42;9.20;99.90
45283;DHT22;31023;44.994;1.796;2023-02-24T00:21:15;9.10;99.90
45283;DHT22;31023;44.994;1.796;2023-02-24T00:23:43;9.20;99.90
45283;DHT22;31023;44.994;1.796;2023-02-24T00:26:12;9.10;99.90
45283;DHT22;31023;44.994;1.796;2023-02-24T00:28:39;9.20;99.90
45283;DHT22;31023;44.994;1.796;2023-02-24T00:31:07;9.20;99.90
45283;DHT22;31023;44.994;1.796;2023-02-24T00:33:34;9.10;99.90
45283;DHT22;31023;44.994;1.796;2023-02-24T00:36:11;9.10;99.90
45283;DHT22;31023;44.994;1.796;2023-02-24T00:38:37;9.10;99.90
45283;DHT22;31023;44.994;1.796;2023-02-24T00:41:14;9.10;99.90
45283;DHT22;31023;44.994;1.796;2023-02-24T00:43:42;9.10;99.90
45283;DHT22;31023;44.994;1.796;2023-02-24T00:46:18;9.10;99.90
45283;DHT22;31023;44.994;1.796;2023-02-24T00:48:46;9.10;99.90
45283;DHT22;31023;44.994;1.796;2023-02-24T00:51:15;9.00;99.90
45283;DHT22;31023;44.994;1.796;2023-02-24T00:53:41;9.00;99.90
45283;DHT22;31023;44.994;1.796;2023-02-24T00:56:09;9.00;99.90
45283;DHT22;31023;44.994;1.796;2023-02-24T00:58:40;8.90;99.90
45283;DHT22;31023;44.994;1.796;2023-02-24T01:01:15;8.90;99.90
45283;DHT22;31023;44.994;1.796;2023-02-24T01:03:42;8.90;99.90
45283;DHT22;31023;44.994;1.796;2023-02-24T01:06:09;8.90;99.90
45283;DHT22;31023;44.994;1.796;2023-02-24T01:08:37;8.90;99.90
45283;DHT22;31023;44.994;1.796;2023-02-24T01:11:07;8.90;99.90
45283;DHT22;31023;44.994;1.796;2023-02-24T01:13:51;8.90;99.90
45283;DHT22;31023;44.994;1.796;2023-02-24T01:16:17;8.90;99.90
45283;DHT22;31023;44.994;1.796;2023-02-24T01:18:46;8.90;99.90
45283;DHT22;31023;44.994;1.796;2023-02-24T01:21:13;8.80;99.90
45283;DHT22;31023;44.994;1.796;2023-02-24T01:23:41;8.80;99.90
45283;DHT22;31023;44.994;1.796;2023-02-24T01:26:08;8.70;99.90
45283;DHT22;31023;44.994;1.796;2023-02-24T01:28:35;8.80;99.90
45283;DHT22;31023;44.994;1.796;2023-02-24T01:31:03;8.80;99.90
45283;DHT22;31023;44.994;1.796;2023-02-24T01:33:30;8.90;99.90
45283;DHT22;31023;44.994;1.796;2023-02-24T01:36:14;9.10;99.90
45283;DHT22;31023;44.994;1.796;2023-02-24T01:38:40;9.10;99.90
45283;DHT22;31023;44.994;1.796;2023-02-24T01:41:12;9.20;99.90
45283;DHT22;31023;44.994;1.796;2023-02-24T01:43:59;9.20;99.90
45283;DHT22;31023;44.994;1.796;2023-02-24T01:46:28;9.50;99.90
45283;DHT22;31023;44.994;1.796;2023-02-24T01:48:57;9.70;99.90
45283;DHT22;31023;44.994;1.796;2023-02-24T01:51:25;10.00;99.90
45283;DHT22;31023;44.994;1.796;2023-02-24T01:53:53;9.80;99.90
45283;DHT22;31023;44.994;1.796;2023-02-24T01:56:19;10.00;99.90
45283;DHT22;31023;44.994;1.796;2023-02-24T01:58:45;9.90;99.90
45283;DHT22;31023;44.994;1.796;2023-02-24T02:01:14;10.30;99.90
45283;DHT22;31023;44.994;1.796;2023-02-24T02:03:41;10.30;99.90
45283;DHT22;31023;44.994;1.796;2023-02-24T02:06:11;10.30;99.90
45283;DHT22;31023;44.994;1.796;2023-02-24T02:08:40;10.30;99.90
45283;DHT22;31023;44.994;1.796;2023-02-24T02:11:12;10.20;99.90
45283;DHT22;31023;44.994;1.796;2023-02-24T02:13:43;10.20;99.90
45283;DHT22;31023;44.994;1.796;2023-02-24T02:26:54;9.80;99.90
45283;DHT22;31023;44.994;1.796;2023-02-24T02:37:57;9.60;99.90
45283;DHT22;31023;44.994;1.796;2023-02-24T02:40:45;9.60;99.90
45283;DHT22;31023;44.994;1.796;2023-02-24T02:43:15;9.70;99.90
45283;DHT22;31023;44.994;1.796;2023-02-24T02:46:03;9.70;99.90
45283;DHT22;31023;44.994;1.796;2023-02-24T02:48:49;9.70;99.90
45283;DHT22;31023;44.994;1.796;2023-02-24T02:51:23;9.50;99.90
45283;DHT22;31023;44.994;1.796;2023-02-24T02:54:00;9.30;99.90
45283;DHT22;31023;44.994;1.796;2023-02-24T02:56:31;9.30;99.90
45283;DHT22;31023;44.994;1.796;2023-02-24T02:58:58;9.00;99.90
45283;DHT22;31023;44.994;1.796;2023-02-24T03:01:30;9.00;99.90
45283;DHT22;31023;44.994;1.796;2023-02-24T03:04:01;8.90;99.90
45283;DHT22;31023;44.994;1.796;2023-02-24T03:06:41;8.90;99.90
45283;DHT22;31023;44.994;1.796;2023-02-24T03:09:17;8.90;99.90
45283;DHT22;31023;44.994;1.796;2023-02-24T03:11:54;8.90;99.90
45283;DHT22;31023;44.994;1.796;2023-02-24T03:14:27;9.00;99.90
45283;DHT22;31023;44.994;1.796;2023-02-24T03:16:55;9.10;99.90
45283;DHT22;31023;44.994;1.796;2023-02-24T03:19:29;9.10;99.90
45283;DHT22;31023;44.994;1.796;2023-02-24T03:24:30;9.00;99.90
45283;DHT22;31023;44.994;1.796;2023-02-24T03:27:07;9.00;99.90
45283;DHT22;31023;44.994;1.796;2023-02-24T03:29:46;9.00;99.90
45283;DHT22;31023;44.994;1.796;2023-02-24T03:32:21;9.10;99.90
45283;DHT22;31023;44.994;1.796;2023-02-24T03:35:05;9.00;99.90
45283;DHT22;31023;44.994;1.796;2023-02-24T03:37:34;9.00;99.90
45283;DHT22;31023;44.994;1.796;2023-02-24T03:40:05;8.70;99.90
45283;DHT22;31023;44.994;1.796;2023-02-24T03:42:43;8.20;99.90
45283;DHT22;31023;44.994;1.796;2023-02-24T03:45:10;8.10;99.90
45283;DHT22;31023;44.994;1.796;2023-02-24T03:47:37;8.00;99.90
45283;DHT22;31023;44.994;1.796;2023-02-24T03:50:19;7.60;99.90
45283;DHT22;31023;44.994;1.796;2023-02-24T03:58:33;7.40;99.90
45283;DHT22;31023;44.994;1.796;2023-02-24T04:06:23;6.90;99.90
45283;DHT22;31023;44.994;1.796;2023-02-24T04:08:55;6.80;99.90
45283;DHT22;31023;44.994;1.796;2023-02-24T04:14:03;6.60;99.90
45283;DHT22;31023;44.994;1.796;2023-02-24T04:16:37;6.50;99.90
45283;DHT22;31023;44.994;1.796;2023-02-24T04:19:10;6.40;99.90
45283;DHT22;31023;44.994;1.796;2023-02-24T04:21:40;6.50;99.90
45283;DHT22;31023;44.994;1.796;2023-02-24T04:24:09;6.20;99.90
45283;DHT22;31023;44.994;1.796;2023-02-24T04:26:42;6.20;99.90
45283;DHT22;31023;44.994;1.796;2023-02-24T04:29:11;6.30;99.90
45283;DHT22;31023;44.994;1.796;2023-02-24T04:31:52;6.30;99.90
45283;DHT22;31023;44.994;1.796;2023-02-24T04:34:18;6.00;99.90
45283;DHT22;31023;44.994;1.796;2023-02-24T04:36:48;6.00;99.90
45283;DHT22;31023;44.994;1.796;2023-02-24T04:39:20;6.10;99.90
45283;DHT22;31023;44.994;1.796;2023-02-24T04:41:48;5.90;99.90
45283;DHT22;31023;44.994;1.796;2023-02-24T04:44:18;5.90;99.90
45283;DHT22;31023;44.994;1.796;2023-02-24T04:46:45;5.80;99.90
45283;DHT22;31023;44.994;1.796;2023-02-24T04:49:12;5.70;99.90
45283;DHT22;31023;44.994;1.796;2023-02-24T04:51:38;6.10;99.90
45283;DHT22;31023;44.994;1.796;2023-02-24T04:54:08;6.20;99.90
45283;DHT22;31023;44.994;1.796;2023-02-24T04:56:35;6.30;99.90
45283;DHT22;31023;44.994;1.796;2023-02-24T04:59:01;6.20;99.90
45283;DHT22;31023;44.994;1.796;2023-02-24T05:01:27;6.30;99.90
45283;DHT22;31023;44.994;1.796;2023-02-24T05:03:53;6.30;99.90
45283;DHT22;31023;44.994;1.796;2023-02-24T05:06:19;6.20;99.90
45283;DHT22;31023;44.994;1.796;2023-02-24T05:08:45;6.20;99.90
45283;DHT22;31023;44.994;1.796;2023-02-24T05:11:15;6.10;99.90
45283;DHT22;31023;44.994;1.796;2023-02-24T05:13:41;6.10;99.90
45283;DHT22;31023;44.994;1.796;2023-02-24T05:16:11;6.10;99.90
45283;DHT22;31023;44.994;1.796;2023-02-24T05:18:37;5.90;99.90
45283;DHT22;31023;44.994;1.796;2023-02-24T05:21:13;6.10;99.90
45283;DHT22;31023;44.994;1.796;2023-02-24T05:23:58;6.20;99.90
45283;DHT22;31023;44.994;1.796;2023-02-24T05:26:25;6.10;99.90
45283;DHT22;31023;44.994;1.796;2023-02-24T05:28:52;6.00;99.90
45283;DHT22;31023;44.994;1.796;2023-02-24T05:31:24;6.20;99.90
45283;DHT22;31023;44.994;1.796;2023-02-24T05:33:58;6.10;99.90
45283;DHT22;31023;44.994;1.796;2023-02-24T05:36:28;6.00;99.90
45283;DHT22;31023;44.994;1.796;2023-02-24T05:38:57;6.00;99.90
45283;DHT22;31023;44.994;1.796;2023-02-24T05:41:26;6.00;99.90
45283;DHT22;31023;44.994;1.796;2023-02-24T05:44:01;5.90;99.90
45283;DHT22;31023;44.994;1.796;2023-02-24T05:46:31;5.90;99.90
45283;DHT22;31023;44.994;1.796;2023-02-24T05:49:05;5.90;99.90
45283;DHT22;31023;44.994;1.796;2023-02-24T05:51:36;6.00;99.90
45283;DHT22;31023;44.994;1.796;2023-02-24T05:54:08;6.00;99.90
45283;DHT22;31023;44.994;1.796;2023-02-24T05:56:36;6.10;99.90
45283;DHT22;31023;44.994;1.796;2023-02-24T05:59:05;6.20;99.90
45283;DHT22;31023;44.994;1.796;2023-02-24T06:01:40;6.10;99.90
45283;DHT22;31023;44.994;1.796;2023-02-24T06:04:07;6.10;99.90
45283;DHT22;31023;44.994;1.796;2023-02-24T06:06:37;6.10;99.90
45283;DHT22;31023;44.994;1.796;2023-02-24T06:09:05;6.10;99.90
45283;DHT22;31023;44.994;1.796;2023-02-24T06:11:33;6.00;99.90
45283;DHT22;31023;44.994;1.796;2023-02-24T06:13:59;6.20;99.90
45283;DHT22;31023;44.994;1.796;2023-02-24T06:16:25;6.10;99.90
45283;DHT22;31023;44.994;1.796;2023-02-24T06:18:51;6.20;99.90
45283;DHT22;31023;44.994;1.796;2023-02-24T06:21:17;6.20;99.90
45283;DHT22;31023;44.994;1.796;2023-02-24T06:23:43;6.20;99.90
45283;DHT22;31023;44.994;1.796;2023-02-24T06:26:10;6.10;99.90
45283;DHT22;31023;44.994;1.796;2023-02-24T06:28:44;6.10;99.90
45283;DHT22;31023;44.994;1.796;2023-02-24T06:31:11;6.10;99.90
45283;DHT22;31023;44.994;1.796;2023-02-24T06:33:39;6.10;99.90
45283;DHT22;31023;44.994;1.796;2023-02-24T06:36:05;5.90;99.90
45283;DHT22;31023;44.994;1.796;2023-02-24T06:38:34;5.90;99.90
45283;DHT22;31023;44.994;1.796;2023-02-24T06:41:00;5.80;99.90
45283;DHT22;31023;44.994;1.796;2023-02-24T06:43:37;5.80;99.90
45283;DHT22;31023;44.994;1.796;2023-02-24T06:46:05;5.70;99.90
45283;DHT22;31023;44.994;1.796;2023-02-24T06:48:30;5.70;99.90
45283;DHT22;31023;44.994;1.796;2023-02-24T06:51:02;5.70;99.90
45283;DHT22;31023;44.994;1.796;2023-02-24T06:53:29;5.70;99.90
45283;DHT22;31023;44.994;1.796;2023-02-24T06:55:56;5.60;99.90
45283;DHT22;31023;44.994;1.796;2023-02-24T06:58:21;5.80;99.90
45283;DHT22;31023;44.994;1.796;2023-02-24T07:00:48;6.10;99.90
45283;DHT22;31023;44.994;1.796;2023-02-24T07:03:27;6.00;99.90
45283;DHT22;31023;44.994;1.796;2023-02-24T07:06:12;5.90;99.90
45283;DHT22;31023;44.994;1.796;2023-02-24T07:08:51;5.80;99.90
45283;DHT22;31023;44.994;1.796;2023-02-24T07:11:17;5.80;99.90
45283;DHT22;31023;44.994;1.796;2023-02-24T07:13:44;5.90;99.90
45283;DHT22;31023;44.994;1.796;2023-02-24T07:16:13;5.80;99.90
45283;DHT22;31023;44.994;1.796;2023-02-24T07:18:40;5.90;99.90
45283;DHT22;31023;44.994;1.796;2023-02-24T07:21:07;5.90;99.90
45283;DHT22;31023;44.994;1.796;2023-02-24T07:23:38;5.80;99.90
45283;DHT22;31023;44.994;1.796;2023-02-24T07:26:09;5.90;99.90
45283;DHT22;31023;44.994;1.796;2023-02-24T07:28:35;5.80;99.90
45283;DHT22;31023;44.994;1.796;2023-02-24T07:31:07;5.70;99.90
45283;DHT22;31023;44.994;1.796;2023-02-24T07:33:37;5.70;99.90
45283;DHT22;31023;44.994;1.796;2023-02-24T07:36:07;5.60;99.90
45283;DHT22;31023;44.994;1.796;2023-02-24T07:38:36;5.60;99.90
45283;DHT22;31023;44.994;1.796;2023-02-24T07:41:06;5.70;99.90
45283;DHT22;31023;44.994;1.796;2023-02-24T07:43:39;5.40;99.90
45283;DHT22;31023;44.994;1.796;2023-02-24T07:46:14;5.60;99.90
45283;DHT22;31023;44.994;1.796;2023-02-24T07:48:41;5.80;99.90
45283;DHT22;31023;44.994;1.796;2023-02-24T07:51:08;5.70;99.90
45283;DHT22;31023;44.994;1.796;2023-02-24T07:53:34;5.80;99.90
45283;DHT22;31023;44.994;1.796;2023-02-24T07:56:06;5.50;99.90
45283;DHT22;31023;44.994;1.796;2023-02-24T07:58:39;5.70;99.90
45283;DHT22;31023;44.994;1.796;2023-02-24T08:01:07;5.70;99.90
45283;DHT22;31023;44.994;1.796;2023-02-24T08:03:36;5.60;99.90
45283;DHT22;31023;44.994;1.796;2023-02-24T08:06:09;5.70;99.90
45283;DHT22;31023;44.994;1.796;2023-02-24T08:08:43;5.50;99.90
45283;DHT22;31023;44.994;1.796;2023-02-24T08:11:23;5.60;99.90
45283;DHT22;31023;44.994;1.796;2023-02-24T08:13:49;5.80;99.90
45283;DHT22;31023;44.994;1.796;2023-02-24T08:16:15;5.80;99.90
45283;DHT22;31023;44.994;1.796;2023-02-24T08:18:41;5.70;99.90
45283;DHT22;31023;44.994;1.796;2023-02-24T08:21:15;6.00;99.90
45283;DHT22;31023;44.994;1.796;2023-02-24T08:23:41;5.70;99.90
45283;DHT22;31023;44.994;1.796;2023-02-24T08:26:09;6.10;99.90
45283;DHT22;31023;44.994;1.796;2023-02-24T08:28:38;5.80;99.90
45283;DHT22;31023;44.994;1.796;2023-02-24T08:31:04;6.00;99.90
45283;DHT22;31023;44.994;1.796;2023-02-24T08:33:30;6.00;99.90
45283;DHT22;31023;44.994;1.796;2023-02-24T08:35:57;6.00;99.90
45283;DHT22;31023;44.994;1.796;2023-02-24T08:38:26;5.80;99.90
45283;DHT22;31023;44.994;1.796;2023-02-24T08:41:05;5.80;99.90
45283;DHT22;31023;44.994;1.796;2023-02-24T08:43:36;5.70;99.90
45283;DHT22;31023;44.994;1.796;2023-02-24T08:48:58;5.70;99.90
45283;DHT22;31023;44.994;1.796;2023-02-24T08:51:30;5.70;99.90
45283;DHT22;31023;44.994;1.796;2023-02-24T08:54:01;5.70;99.90
45283;DHT22;31023;44.994;1.796;2023-02-24T08:56:30;5.90;99.90
45283;DHT22;31023;44.994;1.796;2023-02-24T08:59:01;5.80;99.90
45283;DHT22;31023;44.994;1.796;2023-02-24T09:01:34;5.90;99.90
45283;DHT22;31023;44.994;1.796;2023-02-24T09:04:03;6.10;99.90
45283;DHT22;31023;44.994;1.796;2023-02-24T09:09:02;5.50;99.90
45283;DHT22;31023;44.994;1.796;2023-02-24T09:11:52;5.60;99.90
45283;DHT22;31023;44.994;1.796;2023-02-24T09:14:21;5.80;99.90
45283;DHT22;31023;44.994;1.796;2023-02-24T09:16:49;5.80;99.90
45283;DHT22;31023;44.994;1.796;2023-02-24T09:19:46;5.90;99.90
45283;DHT22;31023;44.994;1.796;2023-02-24T09:22:13;6.10;99.90
45283;DHT22;31023;44.994;1.796;2023-02-24T09:24:39;5.90;99.90
45283;DHT22;31023;44.994;1.796;2023-02-24T09:27:06;5.80;99.90
45283;DHT22;31023;44.994;1.796;2023-02-24T09:29:31;5.90;99.90
45283;DHT22;31023;44.994;1.796;2023-02-24T09:32:14;5.60;99.90
45283;DHT22;31023;44.994;1.796;2023-02-24T09:34:41;5.70;99.90
45283;DHT22;31023;44.994;1.796;2023-02-24T09:37:09;5.70;99.90
45283;DHT22;31023;44.994;1.796;2023-02-24T09:39:50;5.70;99.90
45283;DHT22;31023;44.994;1.796;2023-02-24T09:42:29;6.00;99.90
45283;DHT22;31023;44.994;1.796;2023-02-24T09:45:20;6.40;99.90
45283;DHT22;31023;44.994;1.796;2023-02-24T09:47:59;6.30;99.90
45283;DHT22;31023;44.994;1.796;2023-02-24T09:50:30;6.10;99.90
45283;DHT22;31023;44.994;1.796;2023-02-24T09:53:13;5.80;99.90
45283;DHT22;31023;44.994;1.796;2023-02-24T09:56:07;5.90;99.90
45283;DHT22;31023;44.994;1.796;2023-02-24T10:06:43;5.90;99.90
45283;DHT22;31023;44.994;1.796;2023-02-24T10:09:34;5.80;99.90
45283;DHT22;31023;44.994;1.796;2023-02-24T10:12:14;5.80;99.90
45283;DHT22;31023;44.994;1.796;2023-02-24T10:17:41;5.70;99.90
45283;DHT22;31023;44.994;1.796;2023-02-24T10:20:35;5.80;99.90
45283;DHT22;31023;44.994;1.796;2023-02-24T10:26:11;5.70;99.90
45283;DHT22;31023;44.994;1.796;2023-02-24T10:31:26;5.70;99.90
45283;DHT22;31023;44.994;1.796;2023-02-24T10:34:03;5.70;99.90
45283;DHT22;31023;44.994;1.796;2023-02-24T10:36:33;5.40;99.90
45283;DHT22;31023;44.994;1.796;2023-02-24T10:39:15;5.40;99.90
45283;DHT22;31023;44.994;1.796;2023-02-24T10:41:43;5.30;99.90
45283;DHT22;31023;44.994;1.796;2023-02-24T10:44:11;5.60;99.90
45283;DHT22;31023;44.994;1.796;2023-02-24T10:46:37;5.20;99.90
45283;DHT22;31023;44.994;1.796;2023-02-24T10:49:03;5.30;99.90
45283;DHT22;31023;44.994;1.796;2023-02-24T10:51:42;5.30;99.90
45283;DHT22;31023;44.994;1.796;2023-02-24T10:54:27;5.40;99.90
45283;DHT22;31023;44.994;1.796;2023-02-24T10:57:11;5.40;99.90
45283;DHT22;31023;44.994;1.796;2023-02-24T10:59:53;5.70;99.90
45283;DHT22;31023;44.994;1.796;2023-02-24T11:02:34;5.80;99.90
45283;DHT22;31023;44.994;1.796;2023-02-24T11:05:22;6.30;99.90
45283;DHT22;31023;44.994;1.796;2023-02-24T11:08:18;6.80;99.90
45283;DHT22;31023;44.994;1.796;2023-02-24T11:11:21;7.10;99.90
45283;DHT22;31023;44.994;1.796;2023-02-24T11:13:59;7.30;99.90
45283;DHT22;31023;44.994;1.796;2023-02-24T11:17:03;8.00;99.90
45283;DHT22;31023;44.994;1.796;2023-02-24T11:22:21;8.30;99.90
45283;DHT22;31023;44.994;1.796;2023-02-24T11:24:49;8.00;99.90
45283;DHT22;31023;44.994;1.796;2023-02-24T11:27:20;8.70;99.90
45283;DHT22;31023;44.994;1.796;2023-02-24T11:38:01;9.60;99.90
45283;DHT22;31023;44.994;1.796;2023-02-24T11:40:38;9.30;99.90
45283;DHT22;31023;44.994;1.796;2023-02-24T11:43:15;9.00;99.90
45283;DHT22;31023;44.994;1.796;2023-02-24T11:46:06;8.90;99.90
45283;DHT22;31023;44.994;1.796;2023-02-24T11:48:41;8.30;99.90
45283;DHT22;31023;44.994;1.796;2023-02-24T11:51:19;8.40;99.90
45283;DHT22;31023;44.994;1.796;2023-02-24T11:54:12;8.20;99.90
45283;DHT22;31023;44.994;1.796;2023-02-24T11:56:45;8.60;99.90
45283;DHT22;31023;44.994;1.796;2023-02-24T12:04:49;8.80;99.90
45283;DHT22;31023;44.994;1.796;2023-02-24T12:07:23;8.30;99.90
45283;DHT22;31023;44.994;1.796;2023-02-24T12:14:51;7.90;99.90
45283;DHT22;31023;44.994;1.796;2023-02-24T12:22:33;7.80;99.90
45283;DHT22;31023;44.994;1.796;2023-02-24T12:25:09;8.00;99.90
45283;DHT22;31023;44.994;1.796;2023-02-24T12:27:50;8.40;99.90
45283;DHT22;31023;44.994;1.796;2023-02-24T12:33:15;9.00;99.90
45283;DHT22;31023;44.994;1.796;2023-02-24T12:38:43;9.20;99.90
45283;DHT22;31023;44.994;1.796;2023-02-24T12:47:30;8.40;99.90
45283;DHT22;31023;44.994;1.796;2023-02-24T12:50:16;8.40;99.90
45283;DHT22;31023;44.994;1.796;2023-02-24T12:55:29;8.20;99.90
45283;DHT22;31023;44.994;1.796;2023-02-24T12:58:12;7.80;99.90
45283;DHT22;31023;44.994;1.796;2023-02-24T13:12:49;8.00;99.90
45283;DHT22;31023;44.994;1.796;2023-02-24T13:14:42;8.00;99.90
45283;DHT22;31023;44.994;1.796;2023-02-24T13:19:38;8.10;99.90
45283;DHT22;31023;44.994;1.796;2023-02-24T13:24:37;8.00;99.90
45283;DHT22;31023;44.994;1.796;2023-02-24T13:27:05;7.90;99.90
45283;DHT22;31023;44.994;1.796;2023-02-24T13:29:45;8.00;99.90
45283;DHT22;31023;44.994;1.796;2023-02-24T13:32:44;8.20;99.90
45283;DHT22;31023;44.994;1.796;2023-02-24T13:37:47;8.10;99.90
45283;DHT22;31023;44.994;1.796;2023-02-24T13:45:29;8.20;99.90
45283;DHT22;31023;44.994;1.796;2023-02-24T14:01:55;8.10;99.90
45283;DHT22;31023;44.994;1.796;2023-02-24T14:04:24;8.20;99.90
45283;DHT22;31023;44.994;1.796;2023-02-24T14:06:52;8.50;99.90
45283;DHT22;31023;44.994;1.796;2023-02-24T14:09:46;8.60;99.90
45283;DHT22;31023;44.994;1.796;2023-02-24T14:12:29;8.90;99.90
45283;DHT22;31023;44.994;1.796;2023-02-24T14:14:56;8.80;99.90
45283;DHT22;31023;44.994;1.796;2023-02-24T14:17:30;8.80;99.90
45283;DHT22;31023;44.994;1.796;2023-02-24T14:22:47;8.50;99.90
45283;DHT22;31023;44.994;1.796;2023-02-24T14:25:14;8.40;99.90
45283;DHT22;31023;44.994;1.796;2023-02-24T14:27:42;8.30;99.90
45283;DHT22;31023;44.994;1.796;2023-02-24T14:32:58;8.10;99.90
45283;DHT22;31023;44.994;1.796;2023-02-24T14:35:41;8.10;99.90
45283;DHT22;31023;44.994;1.796;2023-02-24T14:38:36;8.10;99.90
45283;DHT22;31023;44.994;1.796;2023-02-24T14:41:16;8.00;99.90
45283;DHT22;31023;44.994;1.796;2023-02-24T14:43:43;8.00;99.90
45283;DHT22;31023;44.994;1.796;2023-02-24T14:46:09;7.90;99.90
45283;DHT22;31023;44.994;1.796;2023-02-24T14:48:35;8.20;99.90
45283;DHT22;31023;44.994;1.796;2023-02-24T14:51:18;8.50;99.90
45283;DHT22;31023;44.994;1.796;2023-02-24T14:53:49;8.60;99.90
45283;DHT22;31023;44.994;1.796;2023-02-24T14:56:16;8.60;99.90
45283;DHT22;31023;44.994;1.796;2023-02-24T14:58:57;8.70;99.90
45283;DHT22;31023;44.994;1.796;2023-02-24T15:01:26;8.60;99.90
45283;DHT22;31023;44.994;1.796;2023-02-24T15:03:57;8.60;99.90
45283;DHT22;31023;44.994;1.796;2023-02-24T15:06:31;8.50;99.90
45283;DHT22;31023;44.994;1.796;2023-02-24T15:09:21;8.50;99.90
45283;DHT22;31023;44.994;1.796;2023-02-24T15:11:48;8.60;99.90
45283;DHT22;31023;44.994;1.796;2023-02-24T15:14:18;8.80;99.90
45283;DHT22;31023;44.994;1.796;2023-02-24T15:16:49;8.70;99.90
45283;DHT22;31023;44.994;1.796;2023-02-24T15:19:34;8.40;99.90
45283;DHT22;31023;44.994;1.796;2023-02-24T15:22:02;8.60;99.90
45283;DHT22;31023;44.994;1.796;2023-02-24T15:24:33;8.60;99.90
45283;DHT22;31023;44.994;1.796;2023-02-24T15:27:20;8.60;99.90
45283;DHT22;31023;44.994;1.796;2023-02-24T15:30:37;8.70;99.90
45283;DHT22;31023;44.994;1.796;2023-02-24T15:33:06;8.60;99.90
45283;DHT22;31023;44.994;1.796;2023-02-24T15:35:34;8.10;99.90
45283;DHT22;31023;44.994;1.796;2023-02-24T15:38:03;8.10;99.90
45283;DHT22;31023;44.994;1.796;2023-02-24T15:40:29;8.40;99.90
45283;DHT22;31023;44.994;1.796;2023-02-24T15:42:59;8.10;99.90
45283;DHT22;31023;44.994;1.796;2023-02-24T15:45:34;8.20;99.90
45283;DHT22;31023;44.994;1.796;2023-02-24T15:48:02;8.20;99.90
45283;DHT22;31023;44.994;1.796;2023-02-24T15:50:29;8.30;99.90
45283;DHT22;31023;44.994;1.796;2023-02-24T15:52:58;8.00;99.90
45283;DHT22;31023;44.994;1.796;2023-02-24T15:55:25;8.20;99.90
45283;DHT22;31023;44.994;1.796;2023-02-24T15:57:58;8.30;99.90
45283;DHT22;31023;44.994;1.796;2023-02-24T16:00:24;8.10;99.90
45283;DHT22;31023;44.994;1.796;2023-02-24T16:02:50;8.10;99.90
45283;DHT22;31023;44.994;1.796;2023-02-24T16:05:16;8.10;99.90
45283;DHT22;31023;44.994;1.796;2023-02-24T16:07:45;8.10;99.90
45283;DHT22;31023;44.994;1.796;2023-02-24T16:10:29;7.70;99.90
45283;DHT22;31023;44.994;1.796;2023-02-24T16:12:57;7.70;99.90
45283;DHT22;31023;44.994;1.796;2023-02-24T16:15:29;7.60;99.90
45283;DHT22;31023;44.994;1.796;2023-02-24T16:17:56;7.60;99.90
45283;DHT22;31023;44.994;1.796;2023-02-24T16:20:27;7.60;99.90
45283;DHT22;31023;44.994;1.796;2023-02-24T16:23:00;7.50;99.90
45283;DHT22;31023;44.994;1.796;2023-02-24T16:25:27;7.40;99.90
45283;DHT22;31023;44.994;1.796;2023-02-24T16:27:53;7.30;99.90
45283;DHT22;31023;44.994;1.796;2023-02-24T16:30:23;7.20;99.90
45283;DHT22;31023;44.994;1.796;2023-02-24T16:32:49;7.10;99.90
45283;DHT22;31023;44.994;1.796;2023-02-24T16:35:15;6.90;99.90
45283;DHT22;31023;44.994;1.796;2023-02-24T16:37:45;6.60;99.90
45283;DHT22;31023;44.994;1.796;2023-02-24T16:40:23;6.50;99.90
45283;DHT22;31023;44.994;1.796;2023-02-24T16:42:51;6.50;99.90
45283;DHT22;31023;44.994;1.796;2023-02-24T16:45:18;6.40;99.90
45283;DHT22;31023;44.994;1.796;2023-02-24T16:47:46;6.40;99.90
45283;DHT22;31023;44.994;1.796;2023-02-24T16:50:21;6.30;99.90
45283;DHT22;31023;44.994;1.796;2023-02-24T16:52:47;6.30;99.90
45283;DHT22;31023;44.994;1.796;2023-02-24T16:55:13;6.10;99.90
45283;DHT22;31023;44.994;1.796;2023-02-24T16:57:39;6.10;99.90
45283;DHT22;31023;44.994;1.796;2023-02-24T17:00:06;6.10;99.90
45283;DHT22;31023;44.994;1.796;2023-02-24T17:02:32;6.00;99.90
45283;DHT22;31023;44.994;1.796;2023-02-24T17:04:58;5.90;99.90
45283;DHT22;31023;44.994;1.796;2023-02-24T17:07:24;5.90;99.90
45283;DHT22;31023;44.994;1.796;2023-02-24T17:09:49;5.80;99.90
45283;DHT22;31023;44.994;1.796;2023-02-24T17:12:19;5.80;99.90
45283;DHT22;31023;44.994;1.796;2023-02-24T17:14:44;5.80;99.90
45283;DHT22;31023;44.994;1.796;2023-02-24T17:17:10;5.70;99.90
45283;DHT22;31023;44.994;1.796;2023-02-24T17:19:36;5.60;99.90
45283;DHT22;31023;44.994;1.796;2023-02-24T17:22:03;5.60;99.90
45283;DHT22;31023;44.994;1.796;2023-02-24T17:24:29;5.60;99.90
45283;DHT22;31023;44.994;1.796;2023-02-24T17:26:55;5.50;99.90
45283;DHT22;31023;44.994;1.796;2023-02-24T17:29:25;5.40;99.90
45283;DHT22;31023;44.994;1.796;2023-02-24T17:31:51;5.50;99.90
45283;DHT22;31023;44.994;1.796;2023-02-24T17:34:16;5.50;99.90
45283;DHT22;31023;44.994;1.796;2023-02-24T17:36:42;5.40;99.90
45283;DHT22;31023;44.994;1.796;2023-02-24T17:39:08;5.50;99.90
45283;DHT22;31023;44.994;1.796;2023-02-24T17:41:33;5.50;99.90
45283;DHT22;31023;44.994;1.796;2023-02-24T17:44:00;5.50;99.90
45283;DHT22;31023;44.994;1.796;2023-02-24T17:46:25;5.60;99.90
45283;DHT22;31023;44.994;1.796;2023-02-24T17:48:51;5.50;99.90
45283;DHT22;31023;44.994;1.796;2023-02-24T17:51:18;5.50;99.90
45283;DHT22;31023;44.994;1.796;2023-02-24T17:53:44;5.50;99.90
45283;DHT22;31023;44.994;1.796;2023-02-24T17:56:10;5.40;99.90
45283;DHT22;31023;44.994;1.796;2023-02-24T17:58:36;5.40;99.90
45283;DHT22;31023;44.994;1.796;2023-02-24T18:01:03;5.50;99.90
45283;DHT22;31023;44.994;1.796;2023-02-24T18:03:31;5.40;99.90
45283;DHT22;31023;44.994;1.796;2023-02-24T18:06:01;5.30;99.90
45283;DHT22;31023;44.994;1.796;2023-02-24T18:08:27;5.20;99.90
45283;DHT22;31023;44.994;1.796;2023-02-24T18:10:53;5.20;99.90
45283;DHT22;31023;44.994;1.796;2023-02-24T18:13:19;5.20;99.90
45283;DHT22;31023;44.994;1.796;2023-02-24T18:15:45;5.20;99.90
45283;DHT22;31023;44.994;1.796;2023-02-24T18:18:10;5.20;99.90
45283;DHT22;31023;44.994;1.796;2023-02-24T18:20:40;5.10;99.90
45283;DHT22;31023;44.994;1.796;2023-02-24T18:23:07;5.20;99.90
45283;DHT22;31023;44.994;1.796;2023-02-24T18:25:33;5.20;99.90
45283;DHT22;31023;44.994;1.796;2023-02-24T18:27:59;5.10;99.90
45283;DHT22;31023;44.994;1.796;2023-02-24T18:30:25;5.10;99.90
45283;DHT22;31023;44.994;1.796;2023-02-24T18:32:50;5.10;99.90
45283;DHT22;31023;44.994;1.796;2023-02-24T18:35:16;5.10;99.90